Time;durP1;ratioP1;P1;durP2;ratioP2;P2;SDS_P1;SDS_P2;PMS_P1;PMS_P2;Temp;Humidity;BMP_temperature;BMP_pressure;BME280_temperature;BME280_humidity;BME280_pressure;Samples;Min_cycle;Max_cycle;Signal;HPM_P1;HPM_P2
2024/02/02 00:00:49;;;;;;;0.70;0.67;;;;;;;;;;6339401;28;20072;-83
2024/02/02 00:03:49;;;;;;;0.80;0.70;;;;;;;;;;6345563;28;20486;-83
2024/02/02 00:06:50;;;;;;;0.73;0.50;;;;;;;;;;6346984;28;20100;-84
2024/02/02 00:09:50;;;;;;;0.70;0.53;;;;;;;;;;6348003;28;20028;-83
2024/02/02 00:12:52;;;;;;;0.70;0.60;;;;;;;;;;6337553;28;20060;-83
2024/02/02 00:15:53;;;;;;;0.80;0.70;;;;;;;;;;6324577;28;20058;-83
2024/02/02 00:18:53;;;;;;;0.87;0.60;;;;;;;;;;6345086;28;20019;-83
2024/02/02 00:21:53;;;;;;;0.73;0.50;;;;;;;;;;6320070;28;20053;-83
2024/02/02 00:24:53;;;;;;;0.77;0.57;;;;;;;;;;6331318;28;20036;-84
2024/02/02 00:27:54;;;;;;;0.80;0.60;;;;;;;;;;6345568;28;20826;-83
2024/02/02 00:30:54;;;;;;;0.63;0.60;;;;;;;;;;6347261;28;20400;-83
2024/02/02 00:33:54;;;;;;;1.27;0.53;;;;;;;;;;6344524;28;20103;-83
2024/02/02 00:36:54;;;;;;;0.57;0.50;;;;;;;;;;6346766;28;20051;-83
2024/02/02 00:39:55;;;;;;;0.77;0.60;;;;;;;;;;6346869;28;20022;-83
2024/02/02 00:42:55;;;;;;;0.87;0.50;;;;;;;;;;6343856;28;20415;-83
2024/02/02 00:45:55;;;;;;;0.80;0.60;;;;;;;;;;6343739;28;20114;-83
2024/02/02 00:48:56;;;;;;;1.23;0.60;;;;;;;;;;6345324;28;20018;-83
2024/02/02 00:51:56;;;;;;;0.87;0.40;;;;;;;;;;6345731;28;20020;-83
2024/02/02 00:54:56;;;;;;;0.80;0.40;;;;;;;;;;6345357;28;20043;-82
2024/02/02 00:57:56;;;;;;;0.53;0.40;;;;;;;;;;6328160;28;20085;-83
2024/02/02 01:00:57;;;;;;;0.50;0.32;;;;;;;;;;5990892;28;10000352;-83
2024/02/02 01:03:57;;;;;;;0.60;0.50;;;;;;;;;;6333640;28;20073;-83
2024/02/02 01:06:57;;;;;;;0.70;0.50;;;;;;;;;;6347807;28;20016;-83
2024/02/02 01:09:57;;;;;;;1.80;0.60;;;;;;;;;;6339771;28;20480;-83
2024/02/02 01:12:58;;;;;;;0.50;0.50;;;;;;;;;;6341268;28;20117;-83
2024/02/02 01:15:58;;;;;;;0.67;0.40;;;;;;;;;;6324509;28;20100;-83
2024/02/02 01:18:58;;;;;;;0.47;0.40;;;;;;;;;;6334585;28;20024;-83
2024/02/02 01:21:58;;;;;;;1.70;0.60;;;;;;;;;;6344774;28;20039;-83
2024/02/02 01:24:59;;;;;;;0.50;0.37;;;;;;;;;;6349137;28;20020;-83
2024/02/02 01:28:00;;;;;;;1.70;0.50;;;;;;;;;;6345167;28;20044;-83
2024/02/02 01:31:00;;;;;;;0.40;0.30;;;;;;;;;;6348437;28;20027;-83
2024/02/02 01:34:01;;;;;;;0.57;0.50;;;;;;;;;;6347098;28;20065;-83
2024/02/02 01:37:01;;;;;;;1.40;0.70;;;;;;;;;;6345894;28;20102;-83
2024/02/02 01:40:02;;;;;;;0.60;0.50;;;;;;;;;;6344923;28;20023;-83
2024/02/02 01:43:03;;;;;;;1.38;0.50;;;;;;;;;;6348253;28;20543;-84
2024/02/02 01:46:04;;;;;;;0.85;0.50;;;;;;;;;;6319303;28;20048;-83
2024/02/02 01:49:04;;;;;;;0.57;0.50;;;;;;;;;;6323232;28;20082;-83
2024/02/02 01:52:04;;;;;;;0.47;0.47;;;;;;;;;;6339171;28;20015;-83
2024/02/02 01:55:05;;;;;;;0.70;0.50;;;;;;;;;;6347862;28;20043;-83
2024/02/02 01:58:05;;;;;;;1.23;0.50;;;;;;;;;;6349096;28;20036;-83
2024/02/02 02:01:06;;;;;;;0.63;0.60;;;;;;;;;;6346877;28;20020;-83
2024/02/02 02:04:06;;;;;;;1.00;0.63;;;;;;;;;;6330643;28;20043;-83
2024/02/02 02:07:07;;;;;;;0.90;0.60;;;;;;;;;;6347285;28;20472;-83
2024/02/02 02:10:07;;;;;;;0.80;0.50;;;;;;;;;;6347454;27;20090;-83
2024/02/02 02:13:08;;;;;;;0.90;0.50;;;;;;;;;;6347124;28;20492;-83
2024/02/02 02:16:08;;;;;;;0.97;0.47;;;;;;;;;;6341198;28;20038;-83
2024/02/02 02:19:12;;;;;;;0.77;0.40;;;;;;;;;;6345255;28;20027;-83
2024/02/02 02:22:12;;;;;;;0.73;0.43;;;;;;;;;;6329560;28;20386;-82
2024/02/02 02:25:12;;;;;;;1.20;0.47;;;;;;;;;;6348112;28;20019;-83
2024/02/02 02:28:13;;;;;;;0.83;0.40;;;;;;;;;;6330113;28;20068;-83
2024/02/02 02:31:14;;;;;;;1.17;0.50;;;;;;;;;;6349445;28;20107;-83
2024/02/02 02:34:14;;;;;;;2.47;0.60;;;;;;;;;;6345263;28;20103;-83
2024/02/02 02:37:14;;;;;;;1.03;0.43;;;;;;;;;;6348096;28;20035;-79
2024/02/02 02:40:15;;;;;;;1.10;0.53;;;;;;;;;;6331221;28;20054;-79
2024/02/02 02:43:15;;;;;;;0.60;0.50;;;;;;;;;;6330946;28;20024;-80
2024/02/02 02:46:15;;;;;;;1.17;0.60;;;;;;;;;;6334238;28;20027;-79
2024/02/02 02:49:15;;;;;;;0.80;0.40;;;;;;;;;;6342624;28;20020;-80
2024/02/02 02:52:16;;;;;;;1.30;0.50;;;;;;;;;;6326962;28;20024;-79
2024/02/02 02:55:16;;;;;;;0.80;0.57;;;;;;;;;;6347410;28;20023;-79
2024/02/02 02:58:16;;;;;;;1.23;0.60;;;;;;;;;;6347850;28;20023;-80
2024/02/02 03:01:17;;;;;;;1.30;0.50;;;;;;;;;;6347729;28;20051;-79
2024/02/02 03:04:17;;;;;;;4.27;0.67;;;;;;;;;;6336264;28;20020;-80
2024/02/02 03:07:18;;;;;;;1.00;0.47;;;;;;;;;;6345284;28;20027;-80
2024/02/02 03:10:21;;;;;;;0.93;0.60;;;;;;;;;;6328025;28;20047;-79
2024/02/02 03:13:21;;;;;;;0.65;0.57;;;;;;;;;;6345378;28;20063;-80
2024/02/02 03:16:22;;;;;;;2.80;0.50;;;;;;;;;;6347475;28;20016;-80
2024/02/02 03:19:22;;;;;;;1.00;0.50;;;;;;;;;;6345711;28;20055;-79
2024/02/02 03:22:23;;;;;;;1.07;0.70;;;;;;;;;;6346578;28;20058;-80
2024/02/02 03:25:23;;;;;;;0.53;0.50;;;;;;;;;;6345608;28;20036;-80
2024/02/02 03:28:23;;;;;;;0.93;0.43;;;;;;;;;;6347326;28;20028;-80
2024/02/02 03:31:23;;;;;;;1.53;0.50;;;;;;;;;;6347204;28;20015;-80
2024/02/02 03:34:24;;;;;;;0.47;0.47;;;;;;;;;;6322003;28;20024;-80
2024/02/02 03:37:24;;;;;;;0.77;0.50;;;;;;;;;;6334782;28;20410;-80
2024/02/02 03:40:24;;;;;;;0.50;0.47;;;;;;;;;;6345537;28;20368;-80
2024/02/02 03:43:24;;;;;;;0.83;0.60;;;;;;;;;;6340318;28;20113;-80
2024/02/02 03:46:25;;;;;;;0.83;0.60;;;;;;;;;;6328023;28;20039;-80
2024/02/02 03:49:25;;;;;;;2.40;0.70;;;;;;;;;;6345897;28;20460;-82
2024/02/02 03:52:26;;;;;;;2.03;0.70;;;;;;;;;;6338278;28;20051;-82
2024/02/02 03:55:26;;;;;;;1.03;0.60;;;;;;;;;;6338994;28;20013;-81
2024/02/02 03:58:26;;;;;;;1.07;0.50;;;;;;;;;;6347153;28;20020;-81
2024/02/02 04:01:27;;;;;;;0.77;0.40;;;;;;;;;;6349669;28;20023;-81
2024/02/02 04:04:27;;;;;;;1.37;0.53;;;;;;;;;;6344051;28;20040;-81
2024/02/02 04:07:27;;;;;;;3.20;0.60;;;;;;;;;;6316880;28;20020;-81
2024/02/02 04:10:27;;;;;;;0.43;0.37;;;;;;;;;;6334636;28;20106;-81
2024/02/02 04:13:28;;;;;;;0.67;0.40;;;;;;;;;;6348399;28;20043;-81
2024/02/02 04:16:28;;;;;;;1.00;0.60;;;;;;;;;;6337294;28;20043;-80
2024/02/02 04:19:28;;;;;;;0.93;0.40;;;;;;;;;;6325310;28;20020;-80
2024/02/02 04:22:29;;;;;;;1.63;0.50;;;;;;;;;;6350364;28;20360;-81
2024/02/02 04:25:29;;;;;;;1.10;0.33;;;;;;;;;;6351083;28;20116;-81
2024/02/02 04:28:29;;;;;;;1.83;0.50;;;;;;;;;;6349281;28;20024;-81
2024/02/02 04:31:29;;;;;;;1.90;0.60;;;;;;;;;;6333162;28;20038;-80
2024/02/02 04:34:30;;;;;;;0.87;0.37;;;;;;;;;;6349020;28;20020;-81
2024/02/02 04:37:31;;;;;;;3.20;0.50;;;;;;;;;;6350131;28;20024;-81
2024/02/02 04:40:31;;;;;;;1.87;0.53;;;;;;;;;;6342561;28;20510;-81
2024/02/02 04:43:31;;;;;;;1.20;0.30;;;;;;;;;;6352628;28;20016;-80
2024/02/02 04:46:32;;;;;;;2.10;0.50;;;;;;;;;;6343097;28;20080;-81
2024/02/02 04:49:32;;;;;;;1.33;0.60;;;;;;;;;;6330779;28;20043;-81
2024/02/02 04:52:33;;;;;;;1.10;0.47;;;;;;;;;;6344422;28;20078;-80
2024/02/02 04:55:33;;;;;;;0.80;0.40;;;;;;;;;;6332126;28;20358;-80
2024/02/02 04:58:33;;;;;;;1.23;0.40;;;;;;;;;;6345196;28;20427;-79
2024/02/02 05:01:33;;;;;;;1.23;0.47;;;;;;;;;;6347416;28;20022;-79
2024/02/02 05:04:34;;;;;;;0.80;0.40;;;;;;;;;;6338028;28;20469;-80
2024/02/02 05:07:35;;;;;;;0.80;0.50;;;;;;;;;;6341681;28;20383;-79
2024/02/02 05:10:35;;;;;;;0.50;0.37;;;;;;;;;;6350548;28;20019;-79
2024/02/02 05:13:35;;;;;;;1.77;0.53;;;;;;;;;;6349531;28;20052;-79
2024/02/02 05:16:35;;;;;;;1.73;0.60;;;;;;;;;;6348666;28;20016;-79
2024/02/02 05:19:36;;;;;;;0.83;0.60;;;;;;;;;;6347611;28;20512;-79
2024/02/02 05:22:36;;;;;;;1.73;0.70;;;;;;;;;;6330665;28;20038;-79
2024/02/02 05:25:36;;;;;;;1.10;1.00;;;;;;;;;;6349521;28;20075;-79
2024/02/02 05:28:36;;;;;;;1.80;1.20;;;;;;;;;;6349264;28;20026;-79
2024/02/02 05:31:37;;;;;;;3.07;2.47;;;;;;;;;;6347545;28;20034;-79
2024/02/02 05:34:37;;;;;;;4.97;2.90;;;;;;;;;;6347597;28;20032;-79
2024/02/02 05:37:37;;;;;;;4.73;2.90;;;;;;;;;;6329425;28;20119;-79
2024/02/02 05:40:37;;;;;;;3.33;2.60;;;;;;;;;;6325514;28;20102;-79
2024/02/02 05:43:38;;;;;;;3.80;2.80;;;;;;;;;;6348951;28;20048;-79
2024/02/02 05:46:38;;;;;;;3.77;2.97;;;;;;;;;;6332868;28;20024;-79
2024/02/02 05:49:38;;;;;;;4.03;2.90;;;;;;;;;;6338489;28;20459;-79
2024/02/02 05:52:38;;;;;;;2.73;2.30;;;;;;;;;;6327094;28;20032;-79
2024/02/02 05:55:39;;;;;;;3.83;2.87;;;;;;;;;;6344689;28;20089;-79
2024/02/02 05:58:39;;;;;;;3.80;2.80;;;;;;;;;;6348856;28;20346;-79
2024/02/02 06:01:40;;;;;;;3.57;2.77;;;;;;;;;;6338695;28;20461;-79
2024/02/02 06:04:40;;;;;;;3.50;2.63;;;;;;;;;;6343170;28;20110;-79
2024/02/02 06:07:40;;;;;;;3.57;3.00;;;;;;;;;;6347769;28;20721;-80
2024/02/02 06:10:40;;;;;;;3.93;2.97;;;;;;;;;;6347970;28;20031;-80
2024/02/02 06:13:41;;;;;;;3.37;2.87;;;;;;;;;;6342190;28;20043;-80
2024/02/02 06:16:41;;;;;;;4.47;3.30;;;;;;;;;;6331269;28;20039;-80
2024/02/02 06:19:41;;;;;;;4.57;3.37;;;;;;;;;;6315146;28;20136;-80
2024/02/02 06:22:41;;;;;;;4.03;3.17;;;;;;;;;;6333137;28;20032;-80
2024/02/02 06:25:42;;;;;;;4.07;3.53;;;;;;;;;;6334245;28;20065;-80
2024/02/02 06:28:42;;;;;;;4.33;3.30;;;;;;;;;;6329532;28;20469;-81
2024/02/02 06:31:42;;;;;;;5.93;4.50;;;;;;;;;;6329825;28;20031;-80
2024/02/02 06:34:43;;;;;;;6.80;5.40;;;;;;;;;;6346684;28;20034;-80
2024/02/02 06:37:43;;;;;;;4.97;4.07;;;;;;;;;;6339438;28;20020;-80
2024/02/02 06:40:43;;;;;;;6.07;4.37;;;;;;;;;;6322617;28;20473;-80
2024/02/02 06:43:44;;;;;;;5.13;4.03;;;;;;;;;;6331474;28;20119;-80
2024/02/02 06:46:44;;;;;;;4.87;3.90;;;;;;;;;;6346080;28;20020;-81
2024/02/02 06:49:44;;;;;;;3.77;3.37;;;;;;;;;;6326845;28;20016;-80
2024/02/02 06:52:45;;;;;;;4.00;3.43;;;;;;;;;;6339288;28;20028;-80
2024/02/02 06:55:45;;;;;;;4.03;3.47;;;;;;;;;;6320015;28;20031;-80
2024/02/02 06:58:45;;;;;;;4.60;3.53;;;;;;;;;;6324616;28;20028;-80
2024/02/02 07:01:46;;;;;;;3.40;2.83;;;;;;;;;;6347644;28;20027;-80
2024/02/02 07:04:49;;;;;;;4.30;3.55;;;;;;;;;;6346117;28;20375;-80
2024/02/02 07:07:50;;;;;;;4.18;3.35;;;;;;;;;;6342236;28;20068;-80
2024/02/02 07:10:59;;;;;;;4.47;3.20;;;;;;;;;;6323678;28;20024;-80
2024/02/02 07:13:59;;;;;;;3.88;3.10;;;;;;;;;;6340103;28;20051;-80
2024/02/02 07:16:59;;;;;;;3.10;2.80;;;;;;;;;;6347593;28;20023;-80
2024/02/02 07:20:00;;;;;;;3.63;3.17;;;;;;;;;;6345555;28;20368;-80
2024/02/02 07:23:01;;;;;;;4.07;3.50;;;;;;;;;;6345243;28;20067;-80
2024/02/02 07:26:06;;;;;;;5.00;3.03;;;;;;;;;;6343450;28;20028;-80
2024/02/02 07:29:15;;;;;;;4.32;3.08;;;;;;;;;;6335204;28;20054;-80
2024/02/02 07:32:16;;;;;;;3.15;2.85;;;;;;;;;;6336485;28;20031;-80
2024/02/02 07:35:33;;;;;;;3.47;2.85;;;;;;;;;;6344283;28;20031;-80
2024/02/02 07:38:49;;;;;;;3.70;2.80;;;;;;;;;;6334828;28;20032;-80
2024/02/02 07:41:49;;;;;;;4.05;3.08;;;;;;;;;;6330258;28;20388;-80
2024/02/02 07:44:49;;;;;;;3.23;2.93;;;;;;;;;;6352007;28;20024;-80
2024/02/02 07:47:51;;;;;;;3.33;2.93;;;;;;;;;;6333533;28;20051;-81
2024/02/02 07:50:51;;;;;;;3.20;2.90;;;;;;;;;;6325182;28;20020;-81
2024/02/02 07:53:52;;;;;;;3.03;2.73;;;;;;;;;;6340246;28;20024;-81
2024/02/02 07:56:52;;;;;;;3.03;2.70;;;;;;;;;;6333631;28;20022;-81
2024/02/02 07:59:52;;;;;;;3.80;2.50;;;;;;;;;;6352000;28;20019;-82
2024/02/02 08:02:52;;;;;;;3.63;3.17;;;;;;;;;;6345830;28;20047;-80
2024/02/02 08:05:53;;;;;;;4.10;2.97;;;;;;;;;;6343322;28;20029;-81
2024/02/02 08:08:53;;;;;;;3.70;3.13;;;;;;;;;;6339996;28;20170;-80
2024/02/02 08:11:54;;;;;;;3.43;2.63;;;;;;;;;;6335430;28;20454;-81
2024/02/02 08:14:54;;;;;;;3.00;2.65;;;;;;;;;;6334954;28;20024;-81
2024/02/02 08:17:54;;;;;;;3.00;2.70;;;;;;;;;;6350832;28;20443;-81
2024/02/02 08:20:54;;;;;;;4.47;3.47;;;;;;;;;;6311775;28;20042;-80
2024/02/02 08:23:55;;;;;;;3.63;2.93;;;;;;;;;;6324688;28;20476;-80
2024/02/02 08:26:56;;;;;;;3.03;2.37;;;;;;;;;;6331410;28;20545;-81
2024/02/02 08:29:57;;;;;;;2.88;2.63;;;;;;;;;;6339461;28;20098;-79
2024/02/02 08:32:57;;;;;;;2.97;2.57;;;;;;;;;;6338329;28;20023;-79
2024/02/02 08:35:57;;;;;;;3.37;2.30;;;;;;;;;;6339970;28;20357;-79
2024/02/02 08:38:58;;;;;;;4.03;2.40;;;;;;;;;;6326503;28;20024;-79
2024/02/02 08:41:59;;;;;;;4.37;2.73;;;;;;;;;;6348288;28;20383;-79
2024/02/02 08:45:00;;;;;;;;;;;;;;;;;;6317824;28;20426;-79
2024/02/02 08:48:01;;;;;;;2.38;1.90;;;;;;;;;;6323343;28;19915;-79
2024/02/02 08:51:01;;;;;;;2.30;2.10;;;;;;;;;;6324036;28;20028;-79
2024/02/02 08:54:05;;;;;;;3.60;2.30;;;;;;;;;;6314966;28;20094;-81
2024/02/02 08:57:08;;;;;;;2.53;1.98;;;;;;;;;;6338729;28;20038;-81
2024/02/02 09:00:12;;;;;;;4.32;2.60;;;;;;;;;;6348212;28;20039;-82
2024/02/02 09:03:22;;;;;;;3.35;2.17;;;;;;;;;;6346814;28;20026;-81
2024/02/02 09:06:31;;;;;;;2.95;2.10;;;;;;;;;;6349260;28;20022;-78
2024/02/02 09:09:31;;;;;;;3.15;2.13;;;;;;;;;;6339830;28;20034;-79
2024/02/02 09:12:33;;;;;;;2.53;1.80;;;;;;;;;;6345482;28;20048;-79
2024/02/02 09:15:34;;;;;;;2.58;1.75;;;;;;;;;;6337580;28;20016;-79
2024/02/02 09:18:36;;;;;;;3.30;2.03;;;;;;;;;;6321095;28;20032;-80
2024/02/02 09:21:36;;;;;;;2.20;1.67;;;;;;;;;;6339983;28;20024;-81
2024/02/02 09:24:44;;;;;;;2.70;1.70;;;;;;;;;;6349689;28;20460;-80
2024/02/02 09:27:46;;;;;;;2.40;1.80;;;;;;;;;;6349964;28;20047;-80
2024/02/02 09:30:46;;;;;;;2.85;1.88;;;;;;;;;;6349665;28;20023;-80
2024/02/02 09:33:47;;;;;;;1.80;1.43;;;;;;;;;;6333117;28;20472;-80
2024/02/02 09:36:47;;;;;;;1.70;1.42;;;;;;;;;;6347282;28;20020;-80
2024/02/02 09:39:54;;;;;;;1.63;1.47;;;;;;;;;;6342274;28;20491;-79
2024/02/02 09:43:02;;;;;;;2.05;1.33;;;;;;;;;;6342452;28;20034;-79
2024/02/02 09:46:16;;;;;;;3.00;1.50;;;;;;;;;;6336302;28;20067;-79
2024/02/02 09:49:22;;;;;;;1.67;1.38;;;;;;;;;;6335240;28;20032;-78
2024/02/02 09:52:30;;;;;;;1.85;1.45;;;;;;;;;;6346250;28;20028;-79
2024/02/02 09:55:34;;;;;;;1.98;1.30;;;;;;;;;;6350024;28;20527;-79
2024/02/02 09:58:34;;;;;;;1.67;1.40;;;;;;;;;;6326282;28;20385;-79
2024/02/02 10:01:53;;;;;;;2.40;1.37;;;;;;;;;;6320665;28;20045;-79
2024/02/02 10:04:53;;;;;;;1.65;1.23;;;;;;;;;;6328791;28;20458;-79
2024/02/02 10:08:12;;;;;;;2.83;1.20;;;;;;;;;;6340652;28;20037;-83
2024/02/02 10:11:24;;;;;;;1.85;1.10;;;;;;;;;;6344834;28;20460;-83
2024/02/02 10:14:39;;;;;;;2.83;1.27;;;;;;;;;;6334035;28;20105;-81
2024/02/02 10:17:39;;;;;;;1.88;1.35;;;;;;;;;;6325036;28;20109;-81
2024/02/02 10:21:03;;;;;;;1.73;1.20;;;;;;;;;;6322818;28;20027;-81
2024/02/02 10:24:07;;;;;;;2.75;0.95;;;;;;;;;;6322142;28;20496;-82
2024/02/02 10:27:21;;;;;;;2.38;1.17;;;;;;;;;;6346475;28;20088;-81
2024/02/02 10:30:32;;;;;;;1.92;1.30;;;;;;;;;;6337785;28;20537;-81
2024/02/02 10:33:38;;;;;;;1.75;1.08;;;;;;;;;;6346631;28;20062;-81
2024/02/02 10:36:51;;;;;;;1.85;0.95;;;;;;;;;;6327168;28;20031;-81
2024/02/02 10:39:51;;;;;;;2.10;1.08;;;;;;;;;;6344881;28;20027;-81
2024/02/02 10:43:10;;;;;;;1.00;0.90;;;;;;;;;;6317764;28;20023;-81
2024/02/02 10:46:18;;;;;;;2.50;1.02;;;;;;;;;;5976764;28;10001340;-82
2024/02/02 10:49:25;;;;;;;1.75;0.90;;;;;;;;;;6322912;28;20016;-78
2024/02/02 10:52:37;;;;;;;1.05;0.93;;;;;;;;;;6344324;28;20019;-79
2024/02/02 10:55:37;;;;;;;2.70;0.85;;;;;;;;;;6345001;28;20031;-79
2024/02/02 10:58:52;;;;;;;1.10;0.80;;;;;;;;;;6347998;28;20016;-78
2024/02/02 11:01:55;;;;;;;2.05;0.82;;;;;;;;;;6348038;28;20019;-79
2024/02/02 11:04:58;;;;;;;1.20;0.75;;;;;;;;;;6345978;28;20019;-79
2024/02/02 11:08:01;;;;;;;1.75;0.88;;;;;;;;;;6341016;28;20051;-79
2024/02/02 11:11:03;;;;;;;3.33;1.00;;;;;;;;;;6322172;28;20078;-78
2024/02/02 11:14:17;;;;;;;1.80;0.98;;;;;;;;;;6339729;28;20047;-79
2024/02/02 11:17:22;;;;;;;1.52;0.88;;;;;;;;;;6334006;28;20031;-82
2024/02/02 11:20:45;;;;;;;1.00;0.90;;;;;;;;;;6322792;28;20449;-81
2024/02/02 11:23:48;;;;;;;2.00;0.90;;;;;;;;;;6345462;28;20053;-82
2024/02/02 11:27:02;;;;;;;2.00;1.02;;;;;;;;;;6349344;28;20053;-81
2024/02/02 11:30:03;;;;;;;1.20;0.95;;;;;;;;;;6347908;28;20027;-82
2024/02/02 11:33:18;;;;;;;2.20;0.90;;;;;;;;;;6348244;28;20460;-82
2024/02/02 11:36:18;;;;;;;3.40;1.10;;;;;;;;;;6347352;28;20039;-81
2024/02/02 11:39:37;;;;;;;3.43;1.10;;;;;;;;;;6320804;28;20027;-84
2024/02/02 11:42:39;;;;;;;1.65;0.95;;;;;;;;;;6348135;28;20020;-84
2024/02/02 11:45:42;;;;;;;1.13;0.70;;;;;;;;;;6346495;28;20028;-81
2024/02/02 11:48:44;;;;;;;1.83;1.05;;;;;;;;;;6327143;28;20194;-80
2024/02/02 11:51:51;;;;;;;0.95;0.85;;;;;;;;;;6341401;28;20060;-80
2024/02/02 11:54:54;;;;;;;2.00;0.80;;;;;;;;;;6345717;28;20391;-79
2024/02/02 11:58:00;;;;;;;2.38;1.20;;;;;;;;;;6334875;28;20023;-79
2024/02/02 12:01:00;;;;;;;2.17;0.90;;;;;;;;;;6346974;28;20028;-80
2024/02/02 12:04:12;;;;;;;2.33;0.90;;;;;;;;;;6345613;28;20066;-79
2024/02/02 12:07:28;;;;;;;2.13;0.90;;;;;;;;;;6345716;28;20537;-79
2024/02/02 12:10:29;;;;;;;1.80;0.98;;;;;;;;;;6344978;28;20037;-81
2024/02/02 12:13:31;;;;;;;2.20;1.00;;;;;;;;;;6343923;28;20047;-82
2024/02/02 12:16:31;;;;;;;1.00;0.75;;;;;;;;;;6346091;28;20027;-80
2024/02/02 12:19:31;;;;;;;1.60;1.20;;;;;;;;;;6345246;28;20123;-81
2024/02/02 12:22:31;;;;;;;1.10;0.93;;;;;;;;;;6348467;28;20070;-82
2024/02/02 12:25:33;;;;;;;1.90;1.00;;;;;;;;;;6341372;28;20028;-81
2024/02/02 12:28:33;;;;;;;1.40;0.93;;;;;;;;;;6332807;28;20116;-81
2024/02/02 12:31:34;;;;;;;1.20;0.90;;;;;;;;;;6351136;28;20037;-81
2024/02/02 12:34:34;;;;;;;1.87;0.97;;;;;;;;;;6346347;28;20038;-81
2024/02/02 12:37:50;;;;;;;2.70;1.02;;;;;;;;;;6348169;28;20464;-81
2024/02/02 12:40:51;;;;;;;1.48;0.80;;;;;;;;;;6349778;28;20050;-81
2024/02/02 12:43:51;;;;;;;2.37;1.00;;;;;;;;;;6348509;28;20019;-82
2024/02/02 12:46:51;;;;;;;1.67;1.07;;;;;;;;;;6338761;28;20020;-81
2024/02/02 12:49:54;;;;;;;1.40;1.13;;;;;;;;;;6323730;28;20441;-81
2024/02/02 12:52:54;;;;;;;1.50;0.98;;;;;;;;;;6350269;28;20456;-81
2024/02/02 12:55:55;;;;;;;2.93;1.10;;;;;;;;;;6344337;28;20027;-81
2024/02/02 12:58:55;;;;;;;3.93;1.20;;;;;;;;;;6348509;28;20012;-81
2024/02/02 13:01:55;;;;;;;4.50;1.20;;;;;;;;;;6347580;28;20070;-81
2024/02/02 13:04:56;;;;;;;0.97;0.80;;;;;;;;;;6332127;28;20024;-81
2024/02/02 13:07:56;;;;;;;1.00;0.90;;;;;;;;;;6324827;28;20040;-81
2024/02/02 13:10:58;;;;;;;3.23;0.90;;;;;;;;;;6345231;28;20269;-82
2024/02/02 13:14:05;;;;;;;2.35;1.00;;;;;;;;;;6333678;28;20127;-81
2024/02/02 13:17:09;;;;;;;1.08;0.98;;;;;;;;;;6350112;28;20099;-81
2024/02/02 13:20:11;;;;;;;1.63;1.00;;;;;;;;;;6347422;28;20388;-81
2024/02/02 13:23:17;;;;;;;1.05;0.77;;;;;;;;;;6349762;28;20027;-81
2024/02/02 13:26:20;;;;;;;2.17;1.15;;;;;;;;;;6328785;28;20456;-81
2024/02/02 13:29:26;;;;;;;2.05;1.00;;;;;;;;;;6324040;28;20107;-81
2024/02/02 13:32:29;;;;;;;2.17;0.88;;;;;;;;;;6336990;28;20029;-81
2024/02/02 13:35:31;;;;;;;2.78;1.20;;;;;;;;;;6347017;28;20604;-81
2024/02/02 13:38:31;;;;;;;1.75;1.13;;;;;;;;;;6349498;28;20027;-81
2024/02/02 13:41:34;;;;;;;2.20;1.00;;;;;;;;;;6348232;28;20537;-81
2024/02/02 13:44:35;;;;;;;1.55;1.38;;;;;;;;;;6340553;28;20102;-81
2024/02/02 13:47:36;;;;;;;1.15;0.95;;;;;;;;;;6347954;28;20023;-81
2024/02/02 13:50:50;;;;;;;2.15;1.02;;;;;;;;;;6344760;28;20050;-81
2024/02/02 13:53:51;;;;;;;2.45;1.15;;;;;;;;;;6345543;28;20023;-81
2024/02/02 13:56:51;;;;;;;1.37;0.90;;;;;;;;;;6349604;28;20019;-82
2024/02/02 13:59:54;;;;;;;1.00;0.90;;;;;;;;;;6348480;28;20043;-82
2024/02/02 14:03:04;;;;;;;1.42;1.15;;;;;;;;;;6335194;28;20076;-81
2024/02/02 14:06:04;;;;;;;1.55;1.00;;;;;;;;;;6336849;28;20024;-81
2024/02/02 14:09:04;;;;;;;1.57;0.70;;;;;;;;;;6349052;28;20055;-81
2024/02/02 14:12:06;;;;;;;2.70;1.17;;;;;;;;;;6318211;28;21197;-81
2024/02/02 14:15:06;;;;;;;1.42;1.17;;;;;;;;;;6348652;28;20027;-81
2024/02/02 14:18:06;;;;;;;1.90;1.20;;;;;;;;;;6347921;28;20145;-85
2024/02/02 14:21:10;;;;;;;1.70;1.03;;;;;;;;;;6347607;28;20023;-84
2024/02/02 14:24:12;;;;;;;0.88;0.73;;;;;;;;;;6347858;28;20023;-84
2024/02/02 14:27:12;;;;;;;1.23;0.70;;;;;;;;;;6347389;28;20031;-84
2024/02/02 14:30:19;;;;;;;1.90;1.13;;;;;;;;;;6348357;28;20020;-84
2024/02/02 14:33:19;;;;;;;1.92;0.90;;;;;;;;;;6346211;28;20069;-84
2024/02/02 14:36:20;;;;;;;2.10;0.83;;;;;;;;;;6347350;28;20037;-83
2024/02/02 14:39:23;;;;;;;1.73;0.93;;;;;;;;;;6347897;28;20117;-84
2024/02/02 14:42:23;;;;;;;2.03;1.00;;;;;;;;;;6329014;28;20027;-83
2024/02/02 14:45:24;;;;;;;5.00;1.20;;;;;;;;;;6321853;28;20016;-84
2024/02/02 14:48:24;;;;;;;1.43;0.97;;;;;;;;;;6345947;28;20548;-84
2024/02/02 14:51:24;;;;;;;2.80;0.70;;;;;;;;;;6347079;28;20249;-84
2024/02/02 14:54:25;;;;;;;3.67;1.00;;;;;;;;;;6329810;28;20031;-84
2024/02/02 14:57:26;;;;;;;1.13;0.70;;;;;;;;;;6347280;28;20020;-84
2024/02/02 15:00:30;;;;;;;1.48;0.80;;;;;;;;;;6324373;28;20536;-84
2024/02/02 15:03:30;;;;;;;2.63;0.85;;;;;;;;;;6337437;28;20024;-84
2024/02/02 15:06:32;;;;;;;1.47;1.17;;;;;;;;;;6347514;28;20376;-84
2024/02/02 15:09:32;;;;;;;1.40;0.70;;;;;;;;;;6347867;28;20141;-84
2024/02/02 15:12:32;;;;;;;1.30;0.70;;;;;;;;;;6343759;28;20040;-84
2024/02/02 15:15:33;;;;;;;1.87;1.10;;;;;;;;;;6342759;28;20080;-84
2024/02/02 15:18:33;;;;;;;1.20;0.97;;;;;;;;;;6342692;28;20012;-84
2024/02/02 15:21:33;;;;;;;1.17;1.00;;;;;;;;;;6321772;28;20024;-84
2024/02/02 15:24:34;;;;;;;1.70;0.93;;;;;;;;;;6322392;28;20024;-84
2024/02/02 15:27:34;;;;;;;1.40;0.97;;;;;;;;;;6335353;28;20023;-80
2024/02/02 15:30:34;;;;;;;1.20;0.77;;;;;;;;;;6346886;28;20027;-79
2024/02/02 15:33:34;;;;;;;0.70;0.70;;;;;;;;;;6347098;28;20015;-80
2024/02/02 15:36:35;;;;;;;1.93;1.13;;;;;;;;;;6347175;28;20051;-79
2024/02/02 15:39:38;;;;;;;3.87;2.40;;;;;;;;;;6345167;28;20038;-80
2024/02/02 15:42:39;;;;;;;3.63;2.03;;;;;;;;;;6346024;28;20112;-80
2024/02/02 15:45:41;;;;;;;1.70;1.27;;;;;;;;;;6343582;28;20043;-79
2024/02/02 15:48:41;;;;;;;2.17;1.33;;;;;;;;;;6345222;28;20024;-78
2024/02/02 15:51:42;;;;;;;1.20;0.90;;;;;;;;;;6346860;28;20027;-79
2024/02/02 15:54:42;;;;;;;0.83;0.80;;;;;;;;;;6348573;28;20027;-77
2024/02/02 15:57:45;;;;;;;1.60;0.90;;;;;;;;;;6348275;28;20030;-79
2024/02/02 16:00:45;;;;;;;1.05;0.70;;;;;;;;;;6337726;28;20468;-77
2024/02/02 16:03:45;;;;;;;0.87;0.67;;;;;;;;;;6345254;28;20034;-80
2024/02/02 16:06:46;;;;;;;1.00;0.70;;;;;;;;;;6340353;28;20402;-81
2024/02/02 16:09:46;;;;;;;1.20;0.90;;;;;;;;;;6352715;28;20079;-79
2024/02/02 16:12:46;;;;;;;1.00;0.80;;;;;;;;;;6350009;28;20057;-80
2024/02/02 16:15:47;;;;;;;0.83;0.70;;;;;;;;;;6352988;28;20519;-79
2024/02/02 16:18:47;;;;;;;1.03;0.77;;;;;;;;;;6347214;28;20103;-79
2024/02/02 16:21:47;;;;;;;0.80;0.80;;;;;;;;;;6350125;28;20058;-79
2024/02/02 16:24:47;;;;;;;1.10;0.80;;;;;;;;;;6348853;28;20481;-79
2024/02/02 16:27:48;;;;;;;1.33;0.90;;;;;;;;;;6349926;28;20517;-79
2024/02/02 16:30:48;;;;;;;0.83;0.80;;;;;;;;;;6351631;28;20437;-78
2024/02/02 16:33:48;;;;;;;1.27;1.00;;;;;;;;;;6350779;28;20016;-80
2024/02/02 16:36:48;;;;;;;1.23;0.73;;;;;;;;;;6351113;28;20019;-79
2024/02/02 16:39:49;;;;;;;0.80;0.80;;;;;;;;;;6351466;28;20460;-79
2024/02/02 16:42:49;;;;;;;0.80;0.80;;;;;;;;;;6352095;28;20414;-79
2024/02/02 16:45:49;;;;;;;1.30;1.13;;;;;;;;;;6333620;28;20088;-78
2024/02/02 16:48:52;;;;;;;0.80;0.80;;;;;;;;;;6325320;28;20048;-83
2024/02/02 16:51:52;;;;;;;1.10;0.98;;;;;;;;;;6323234;28;20027;-84
2024/02/02 16:54:52;;;;;;;1.17;0.97;;;;;;;;;;6335649;28;20031;-84
2024/02/02 16:57:52;;;;;;;1.83;1.20;;;;;;;;;;6350344;28;20007;-83
2024/02/02 17:00:53;;;;;;;0.90;0.80;;;;;;;;;;6349947;28;20404;-84
2024/02/02 17:03:53;;;;;;;1.03;0.80;;;;;;;;;;6349035;28;20453;-84
2024/02/02 17:06:53;;;;;;;0.67;0.67;;;;;;;;;;6349965;28;20020;-84
2024/02/02 17:09:54;;;;;;;0.60;0.43;;;;;;;;;;6337142;28;20020;-84
2024/02/02 17:12:54;;;;;;;0.60;0.60;;;;;;;;;;6349592;28;20044;-83
2024/02/02 17:15:55;;;;;;;0.50;0.43;;;;;;;;;;6349599;28;20353;-84
2024/02/02 17:18:55;;;;;;;0.50;0.50;;;;;;;;;;6348696;28;20019;-84
2024/02/02 17:21:55;;;;;;;0.50;0.50;;;;;;;;;;6349387;28;20111;-83
2024/02/02 17:24:56;;;;;;;0.33;0.30;;;;;;;;;;6350063;28;20049;-84
2024/02/02 17:27:56;;;;;;;0.50;0.40;;;;;;;;;;6346599;28;20036;-84
2024/02/02 17:30:56;;;;;;;0.43;0.30;;;;;;;;;;6340379;28;20087;-85
2024/02/02 17:33:57;;;;;;;0.40;0.37;;;;;;;;;;6347915;28;20472;-85
2024/02/02 17:36:57;;;;;;;1.33;0.90;;;;;;;;;;6334299;28;20085;-86
2024/02/02 17:39:57;;;;;;;0.80;0.57;;;;;;;;;;6349647;28;20425;-86
2024/02/02 17:42:57;;;;;;;0.30;0.30;;;;;;;;;;6348239;28;20020;-85
2024/02/02 17:45:58;;;;;;;0.30;0.20;;;;;;;;;;6348123;28;20020;-84
2024/02/02 17:48:58;;;;;;;0.17;0.17;;;;;;;;;;6336039;28;20102;-85
2024/02/02 17:51:58;;;;;;;0.43;0.40;;;;;;;;;;6347554;28;20024;-85
2024/02/02 17:55:00;;;;;;;0.33;0.30;;;;;;;;;;6321933;28;20028;-84
2024/02/02 17:58:00;;;;;;;0.45;0.30;;;;;;;;;;6331800;28;20479;-80
2024/02/02 18:01:00;;;;;;;0.20;0.20;;;;;;;;;;6348343;28;20019;-80
2024/02/02 18:04:01;;;;;;;0.40;0.30;;;;;;;;;;6347083;28;20023;-81
2024/02/02 18:07:01;;;;;;;0.47;0.30;;;;;;;;;;6343993;28;20049;-81
2024/02/02 18:10:01;;;;;;;0.30;0.30;;;;;;;;;;6320788;28;20461;-81